Time;durP1;ratioP1;P1;durP2;ratioP2;P2;SDS_P1;SDS_P2;PMS_P1;PMS_P2;Temp;Humidity;BMP_temperature;BMP_pressure;BME280_temperature;BME280_humidity;BME280_pressure;Samples;Min_cycle;Max_cycle;Signal;HPM_P1;HPM_P2
2020/12/06 00:01:10;;;;;;;12.10;8.65;;;;;;;9.10;52.31;101372.41;1807220;78;21178;-67
2020/12/06 00:03:37;;;;;;;10.58;8.45;;;;;;;9.09;52.27;101374.22;1789003;80;21378;-67
2020/12/06 00:06:05;;;;;;;11.95;9.00;;;;;;;9.08;52.28;101369.89;1784767;80;21115;-68
2020/12/06 00:08:32;;;;;;;11.05;8.25;;;;;;;9.07;52.26;101370.84;1807034;78;21108;-69
2020/12/06 00:11:02;;;;;;;9.70;7.97;;;;;;;9.08;52.24;101373.00;1808757;78;21111;-68
2020/12/06 00:13:30;;;;;;;10.90;8.53;;;;;;;9.07;52.23;101377.47;1807822;78;21159;-69
2020/12/06 00:16:00;;;;;;;10.03;8.25;;;;;;;9.06;52.21;101375.80;1797153;78;21186;-68
2020/12/06 00:18:27;;;;;;;9.58;7.92;;;;;;;9.04;52.19;101373.75;1820256;78;21182;-68
2020/12/06 00:20:55;;;;;;;10.13;7.92;;;;;;;9.04;52.19;101371.09;1818025;78;21579;-68
2020/12/06 00:23:22;;;;;;;9.45;8.08;;;;;;;9.04;52.13;101377.72;1821180;78;21159;-69
2020/12/06 00:25:50;;;;;;;9.88;8.15;;;;;;;9.03;52.11;101383.48;1821306;78;21139;-69
2020/12/06 00:28:18;;;;;;;9.90;8.20;;;;;;;9.03;52.10;101387.95;1809236;78;21287;-69
2020/12/06 00:30:45;;;;;;;9.63;7.60;;;;;;;9.02;52.10;101387.11;1809457;78;21191;-69
2020/12/06 00:33:14;;;;;;;11.80;8.48;;;;;;;9.00;52.06;101376.24;1744776;79;21622;-70
2020/12/06 00:35:41;;;;;;;10.70;8.38;;;;;;;8.99;52.06;101381.20;1819098;78;21641;-68
2020/12/06 00:38:08;;;;;;;10.35;8.18;;;;;;;8.98;52.04;101382.14;1791095;78;21144;-69
2020/12/06 00:40:35;;;;;;;12.20;8.65;;;;;;;8.97;52.05;101379.98;1787680;79;21243;-69
2020/12/06 00:43:05;;;;;;;8.80;7.55;;;;;;;8.96;52.03;101378.77;1743674;79;21195;-68
2020/12/06 00:45:35;;;;;;;12.15;8.28;;;;;;;8.95;52.03;101379.26;1789278;78;21186;-68
2020/12/06 00:48:03;;;;;;;9.60;7.92;;;;;;;8.95;52.01;101374.45;1784165;79;21154;-68
2020/12/06 00:50:39;;;;;;;11.00;8.48;;;;;;;8.95;51.98;101381.91;1793485;79;21151;-73
2020/12/06 00:53:28;;;;;;;9.05;7.53;;;;;;;8.96;51.97;101366.84;1801138;77;28268;-69
2020/12/06 00:55:55;;;;;;;10.68;8.70;;;;;;;8.94;51.94;101371.42;1737803;80;21176;-68
2020/12/06 00:58:23;;;;;;;8.38;7.10;;;;;;;8.93;51.91;101375.05;1749137;80;21203;-70
2020/12/06 01:00:50;;;;;;;8.75;7.03;;;;;;;8.92;51.88;101376.83;1753480;80;21148;-68
2020/12/06 01:03:17;;;;;;;9.85;7.75;;;;;;;8.91;51.89;101374.32;1774061;80;21147;-67
2020/12/06 01:05:44;;;;;;;10.35;7.22;;;;;;;8.91;51.85;101375.64;1764032;80;21159;-68
2020/12/06 01:08:12;;;;;;;10.00;8.15;;;;;;;8.89;51.85;101374.44;1748307;80;21152;-69
2020/12/06 01:10:42;;;;;;;8.98;7.10;;;;;;;8.88;51.86;101369.24;1750841;80;21160;-70
2020/12/06 01:13:12;;;;;;;9.13;6.97;;;;;;;8.85;51.82;101372.49;1733218;82;21176;-68
2020/12/06 01:15:39;;;;;;;8.58;7.20;;;;;;;8.84;51.83;101378.73;1710213;82;21676;-68
2020/12/06 01:18:10;;;;;;;8.70;7.12;;;;;;;8.83;51.84;101377.06;1719531;82;21823;-68
2020/12/06 01:20:37;;;;;;;9.65;7.12;;;;;;;8.82;51.82;101379.34;1741993;82;21163;-68
2020/12/06 01:23:06;;;;;;;8.85;7.05;;;;;;;8.82;51.77;101379.83;1743193;82;21272;-69
2020/12/06 01:25:34;;;;;;;8.30;6.78;;;;;;;8.80;51.79;101377.28;1738085;82;21587;-67
2020/12/06 01:28:02;;;;;;;10.23;7.40;;;;;;;8.79;51.78;101371.64;1729370;82;21160;-70
2020/12/06 01:30:29;;;;;;;9.60;7.40;;;;;;;8.78;51.79;101374.41;1678324;85;21224;-67
2020/12/06 01:32:57;;;;;;;9.10;7.15;;;;;;;8.77;51.77;101366.94;1658080;85;21769;-68
2020/12/06 01:35:24;;;;;;;9.05;7.35;;;;;;;8.76;51.78;101369.21;1649201;85;21403;-70
2020/12/06 01:37:52;;;;;;;8.60;6.78;;;;;;;8.76;51.73;101371.03;1666431;84;21184;-69
2020/12/06 01:40:19;;;;;;;9.90;7.50;;;;;;;8.76;51.72;101380.30;1688946;84;21283;-69
2020/12/06 01:42:46;;;;;;;9.50;7.08;;;;;;;8.74;51.72;101377.76;1710441;83;21603;-70
2020/12/06 01:45:16;;;;;;;8.65;7.03;;;;;;;8.74;51.71;101384.38;1692270;83;21196;-70
2020/12/06 01:47:47;;;;;;;8.65;6.72;;;;;;;8.73;51.68;101384.03;1672789;85;21766;-69
2020/12/06 01:50:14;;;;;;;7.97;6.62;;;;;;;8.71;51.68;101378.01;1704713;83;21195;-68
2020/12/06 01:52:42;;;;;;;10.00;7.15;;;;;;;8.71;51.65;101370.52;1688815;84;21213;-68
2020/12/06 01:55:12;;;;;;;8.65;6.47;;;;;;;8.70;51.64;101381.61;1668132;83;21129;-68
2020/12/06 01:57:40;;;;;;;8.78;6.60;;;;;;;8.69;51.63;101382.55;1689996;83;21179;-69
2020/12/06 02:00:08;;;;;;;8.88;6.87;;;;;;;8.66;51.64;101379.66;1676752;83;22672;-69
2020/12/06 02:02:36;;;;;;;8.53;7.12;;;;;;;8.66;51.61;101384.12;1673561;83;21236;-68
2020/12/06 02:05:04;;;;;;;7.92;6.17;;;;;;;8.65;51.61;101386.39;1688056;83;21658;-68
2020/12/06 02:07:32;;;;;;;8.18;6.50;;;;;;;8.65;51.61;101390.38;1666067;84;21129;-70
2020/12/06 02:10:00;;;;;;;8.68;6.90;;;;;;;8.63;51.59;101382.56;1678499;84;21136;-69
2020/12/06 02:12:28;;;;;;;9.95;6.58;;;;;;;8.63;51.58;101389.64;1694991;84;21607;-69
2020/12/06 02:14:55;;;;;;;8.93;6.60;;;;;;;8.61;51.56;101387.10;1660764;85;21228;-68
2020/12/06 02:17:26;;;;;;;9.15;6.65;;;;;;;8.61;51.55;101384.94;1674667;85;21180;-67
2020/12/06 02:19:57;;;;;;;7.83;6.37;;;;;;;8.57;51.56;101380.34;1666245;85;21152;-67
2020/12/06 02:22:24;;;;;;;8.48;7.00;;;;;;;8.59;51.54;101381.56;1655913;85;21196;-68
2020/12/06 02:24:54;;;;;;;8.63;6.67;;;;;;;8.57;51.52;101387.45;1685507;84;23548;-67
2020/12/06 02:27:21;;;;;;;7.42;6.20;;;;;;;8.57;51.51;101392.76;1673426;84;21206;-70
2020/12/06 02:29:49;;;;;;;7.72;6.28;;;;;;;8.55;51.48;101382.76;1679469;85;21163;-68
2020/12/06 02:32:16;;;;;;;8.75;6.50;;;;;;;8.54;51.45;101387.22;1646623;85;21211;-67
2020/12/06 02:34:44;;;;;;;9.23;7.15;;;;;;;8.54;51.47;101385.05;1675038;84;21151;-67
2020/12/06 02:37:14;;;;;;;6.90;6.08;;;;;;;8.54;51.44;101385.05;1657066;85;23601;-69
2020/12/06 02:39:42;;;;;;;7.25;5.58;;;;;;;8.53;51.43;101396.11;1651562;84;21127;-68
2020/12/06 02:42:10;;;;;;;7.78;5.97;;;;;;;8.52;51.42;101392.24;1681124;85;21196;-69
2020/12/06 02:44:41;;;;;;;8.30;6.15;;;;;;;8.51;51.39;101393.22;1672366;83;21180;-69
2020/12/06 02:47:08;;;;;;;8.23;5.95;;;;;;;8.49;51.39;101388.52;1696467;84;21619;-68
2020/12/06 02:49:39;;;;;;;10.95;6.53;;;;;;;8.49;51.37;101393.81;1670739;83;21341;-67
2020/12/06 02:52:06;;;;;;;6.83;5.70;;;;;;;8.48;51.35;101390.78;1666326;84;21178;-68
2020/12/06 02:54:35;;;;;;;8.03;6.45;;;;;;;8.48;51.35;101398.27;1711716;82;21612;-70
2020/12/06 02:57:03;;;;;;;6.97;5.75;;;;;;;8.46;51.37;101400.20;1719309;83;21147;-70
2020/12/06 02:59:31;;;;;;;8.05;5.70;;;;;;;8.45;51.34;101403.78;1702164;83;21161;-69
2020/12/06 03:01:58;;;;;;;8.30;6.28;;;;;;;8.43;51.33;101405.22;1737443;82;21401;-69
2020/12/06 03:04:26;;;;;;;6.60;5.62;;;;;;;8.42;51.32;101394.28;1709109;82;21183;-68
2020/12/06 03:06:53;;;;;;;6.78;5.33;;;;;;;8.41;51.32;101397.87;1710929;82;21407;-67
2020/12/06 03:09:21;;;;;;;6.92;5.58;;;;;;;8.41;51.32;101397.87;1712742;82;21203;-69
2020/12/06 03:11:49;;;;;;;7.78;5.95;;;;;;;8.40;51.30;101404.11;1716989;82;21124;-68
2020/12/06 03:14:16;;;;;;;6.67;5.87;;;;;;;8.39;51.28;101395.78;1715336;82;21343;-69
2020/12/06 03:16:43;;;;;;;6.47;5.40;;;;;;;8.37;51.27;101403.00;1729228;82;21112;-69
2020/12/06 03:19:10;;;;;;;7.78;5.70;;;;;;;8.37;51.29;101405.64;1710947;82;21168;-68
2020/12/06 03:21:44;;;;;;;7.80;5.47;;;;;;;8.38;51.29;101413.10;1712521;82;21144;-68
2020/12/06 03:24:11;;;;;;;7.33;5.80;;;;;;;8.35;51.28;101410.70;1712802;82;21152;-68
2020/12/06 03:26:38;;;;;;;7.67;6.05;;;;;;;8.34;51.24;101408.51;1714794;82;21209;-68
2020/12/06 03:29:06;;;;;;;7.30;5.50;;;;;;;8.35;51.26;101412.02;1733809;82;21187;-69
2020/12/06 03:31:33;;;;;;;8.78;5.78;;;;;;;8.33;51.24;101417.42;1665860;84;21220;-70
2020/12/06 03:34:02;;;;;;;8.05;5.92;;;;;;;8.32;51.24;101418.37;1690888;84;21623;-70
2020/12/06 03:36:29;;;;;;;7.58;5.75;;;;;;;8.32;51.24;101421.50;1740706;82;21151;-70
2020/12/06 03:38:56;;;;;;;7.78;6.30;;;;;;;8.30;51.24;101428.23;1708870;81;21805;-69
2020/12/06 03:41:24;;;;;;;6.62;5.20;;;;;;;8.30;51.21;101424.75;1717602;82;21211;-68
2020/12/06 03:43:51;;;;;;;6.62;5.92;;;;;;;8.30;51.19;101428.23;1732648;82;21144;-69
2020/12/06 03:46:19;;;;;;;6.83;5.10;;;;;;;8.28;51.18;101432.80;1722876;82;21608;-69
2020/12/06 03:48:46;;;;;;;7.22;5.58;;;;;;;8.28;51.18;101443.38;1718143;82;21185;-68
2020/12/06 03:53:44;;;;;;;6.90;5.53;;;;;;;8.32;51.14;101434.26;1795705;79;28191;-69
2020/12/06 03:56:18;;;;;;;7.37;5.70;;;;;;;8.27;51.07;101435.93;1753306;80;21143;-69
2020/12/06 03:58:49;;;;;;;6.87;5.22;;;;;;;8.27;51.07;101440.39;1807578;79;21985;-69
2020/12/06 04:01:18;;;;;;;6.80;5.17;;;;;;;8.26;51.05;101441.33;1755397;80;21234;-68
2020/12/06 04:03:46;;;;;;;7.15;5.92;;;;;;;8.23;51.06;101430.98;1751461;80;21142;-69
2020/12/06 04:06:13;;;;;;;7.00;5.75;;;;;;;8.23;51.02;101440.25;1772397;79;22203;-70
2020/12/06 04:08:40;;;;;;;6.83;5.37;;;;;;;8.22;51.00;101445.16;1810855;79;21139;-69
2020/12/06 04:11:09;;;;;;;6.20;5.12;;;;;;;8.22;51.00;101439.86;1763601;80;21630;-68
2020/12/06 04:13:37;;;;;;;7.83;5.55;;;;;;;8.21;51.01;101448.78;1761940;80;21142;-69
2020/12/06 04:16:04;;;;;;;6.30;5.00;;;;;;;8.20;51.01;101446.59;1756742;80;21160;-68
2020/12/06 04:18:31;;;;;;;6.50;5.20;;;;;;;8.20;51.00;101456.34;1792537;79;21160;-69
2020/12/06 04:20:58;;;;;;;6.35;4.87;;;;;;;8.19;50.96;101448.89;1759509;80;21151;-69
2020/12/06 04:23:29;;;;;;;6.30;4.53;;;;;;;8.18;50.94;101453.80;1774259;80;23506;-69
2020/12/06 04:25:56;;;;;;;6.90;5.35;;;;;;;8.18;50.90;101447.66;1779610;79;21163;-68
2020/12/06 04:28:25;;;;;;;7.20;5.03;;;;;;;8.17;50.90;101449.48;1779758;79;21147;-68
2020/12/06 04:30:53;;;;;;;7.05;5.72;;;;;;;8.16;50.91;101453.06;1765768;79;21119;-68
2020/12/06 04:33:20;;;;;;;6.97;5.78;;;;;;;8.16;50.90;101458.36;1785703;79;21138;-69
2020/12/06 04:35:48;;;;;;;5.35;4.42;;;;;;;8.16;50.88;101461.49;1776024;80;22244;-70
2020/12/06 04:38:17;;;;;;;7.20;5.37;;;;;;;8.15;50.87;101454.49;1761858;80;21170;-69
2020/12/06 04:40:45;;;;;;;6.08;4.75;;;;;;;8.14;50.84;101456.79;1785169;79;21147;-67
2020/12/06 04:43:14;;;;;;;6.22;4.67;;;;;;;8.13;50.84;101461.25;1752872;81;21177;-69
2020/12/06 04:45:43;;;;;;;6.78;4.97;;;;;;;8.12;50.81;101453.41;1758473;80;21163;-68
2020/12/06 04:48:11;;;;;;;5.87;4.62;;;;;;;8.13;50.81;101455.08;1761855;81;21217;-69
2020/12/06 04:50:42;;;;;;;6.65;5.47;;;;;;;8.12;50.81;101453.41;1780394;79;21249;-70
2020/12/06 04:53:15;;;;;;;6.25;4.65;;;;;;;8.09;50.79;101451.80;1765358;80;21634;-69
2020/12/06 04:55:44;;;;;;;5.50;4.42;;;;;;;8.10;50.81;101455.32;1765521;81;21166;-69
2020/12/06 04:58:22;;;;;;;5.97;4.62;;;;;;;8.08;50.80;101459.40;1765515;81;21175;-68
2020/12/06 05:00:55;;;;;;;5.70;4.95;;;;;;;8.05;50.76;101455.17;1767309;81;21392;-70
2020/12/06 05:03:24;;;;;;;7.00;5.05;;;;;;;8.05;50.77;101464.44;1765390;81;21107;-69
2020/12/06 05:05:52;;;;;;;6.08;4.55;;;;;;;8.05;50.77;101458.28;1759827;80;21146;-68
2020/12/06 05:08:20;;;;;;;5.95;4.70;;;;;;;8.03;50.76;101461.03;1764895;81;21159;-68
2020/12/06 05:10:48;;;;;;;6.17;4.92;;;;;;;8.03;50.75;101459.70;1737440;81;21174;-68
2020/12/06 05:13:16;;;;;;;6.10;4.42;;;;;;;8.03;50.75;101467.64;1765220;81;21834;-68
2020/12/06 05:15:46;;;;;;;6.10;4.55;;;;;;;8.03;50.71;101470.78;1779252;79;21234;-67
2020/12/06 05:18:16;;;;;;;6.50;4.92;;;;;;;8.01;50.71;101466.91;1780499;80;21678;-67
2020/12/06 05:20:43;;;;;;;7.03;4.83;;;;;;;8.00;50.67;101479.80;1724288;80;21178;-67
2020/12/06 05:23:10;;;;;;;7.22;4.65;;;;;;;7.99;50.70;101464.02;1781133;80;21125;-68
2020/12/06 05:25:41;;;;;;;6.40;4.83;;;;;;;7.99;50.68;101462.69;1701653;80;21223;-68
2020/12/06 05:28:09;;;;;;;6.42;4.47;;;;;;;7.99;50.67;101464.85;1748977;82;21119;-68
2020/12/06 05:30:40;;;;;;;6.75;4.72;;;;;;;7.98;50.64;101466.31;1748322;82;21211;-69
2020/12/06 05:33:09;;;;;;;7.08;5.35;;;;;;;7.97;50.62;101473.38;1759542;80;21369;-68
2020/12/06 05:35:37;;;;;;;6.40;4.45;;;;;;;7.97;50.63;101464.12;1749122;82;21155;-68
2020/12/06 05:38:04;;;;;;;5.15;4.50;;;;;;;7.96;50.60;101465.55;1733201;80;21632;-69
2020/12/06 05:40:31;;;;;;;6.85;4.85;;;;;;;7.96;50.59;101462.89;1779290;80;21623;-69
2020/12/06 05:43:00;;;;;;;5.78;4.70;;;;;;;7.94;50.57;101465.68;1748492;82;21643;-69
2020/12/06 05:45:27;;;;;;;6.72;4.45;;;;;;;7.94;50.57;101467.00;1748558;82;21203;-69
2020/12/06 05:47:54;;;;;;;7.53;4.67;;;;;;;7.94;50.55;101472.30;1749024;82;21108;-69
2020/12/06 05:50:22;;;;;;;6.12;4.87;;;;;;;7.94;50.53;101475.39;1748472;82;21353;-68
2020/12/06 05:52:49;;;;;;;5.75;4.55;;;;;;;7.93;50.52;101473.23;1707312;82;21530;-68
2020/12/06 05:55:16;;;;;;;5.08;4.22;;;;;;;7.93;50.49;101473.23;1730282;80;21152;-67
2020/12/06 05:57:45;;;;;;;6.10;4.42;;;;;;;7.93;50.48;101485.14;1778476;80;21156;-68
2020/12/06 06:00:14;;;;;;;6.37;4.78;;;;;;;7.92;50.47;101482.14;1752436;81;21627;-69
2020/12/06 06:02:43;;;;;;;4.50;3.80;;;;;;;7.92;50.45;101490.09;1753771;81;21271;-69
2020/12/06 06:05:17;;;;;;;4.92;4.03;;;;;;;7.92;50.42;101483.92;1728872;83;21668;-69
2020/12/06 06:07:48;;;;;;;5.42;4.20;;;;;;;7.92;50.43;101487.89;1765202;81;21233;-68
2020/12/06 06:10:18;;;;;;;5.67;4.72;;;;;;;7.91;50.40;101491.51;1762472;81;21190;-69
2020/12/06 06:12:52;;;;;;;5.67;4.22;;;;;;;7.89;50.42;101491.61;1764700;81;21122;-67
2020/12/06 06:15:19;;;;;;;5.62;4.33;;;;;;;7.90;50.40;101495.09;1765120;81;21250;-68
2020/12/06 06:17:48;;;;;;;5.35;4.25;;;;;;;7.88;50.39;101497.87;1763099;81;21106;-68
2020/12/06 06:20:17;;;;;;;5.22;4.17;;;;;;;7.88;50.42;101505.33;1765134;81;21181;-69
2020/12/06 06:22:45;;;;;;;5.30;4.12;;;;;;;7.87;50.37;101497.00;1715287;81;21122;-70
2020/12/06 06:25:14;;;;;;;6.55;4.80;;;;;;;7.88;50.34;101499.20;1716354;81;21201;-69
2020/12/06 06:27:44;;;;;;;6.12;4.37;;;;;;;7.88;50.35;101499.20;1762779;81;21210;-67
2020/12/06 06:30:11;;;;;;;5.20;4.28;;;;;;;7.88;50.31;101504.00;1765107;81;22057;-68
2020/12/06 06:32:39;;;;;;;5.67;4.45;;;;;;;7.88;50.30;101503.16;1763188;81;21109;-68
2020/12/06 06:35:08;;;;;;;5.58;4.45;;;;;;;7.88;50.29;101501.84;1765056;81;21130;-69
2020/12/06 06:37:36;;;;;;;5.87;4.75;;;;;;;7.90;50.25;101510.97;1763754;81;21665;-69
2020/12/06 06:40:06;;;;;;;5.58;4.35;;;;;;;7.88;50.22;101507.13;1765244;81;22115;-69
2020/12/06 06:42:36;;;;;;;5.87;4.83;;;;;;;7.90;50.22;101503.91;1764410;81;21684;-69
2020/12/06 06:45:11;;;;;;;6.05;4.60;;;;;;;7.91;50.20;101507.39;1759605;81;21158;-68
2020/12/06 06:47:41;;;;;;;7.03;4.67;;;;;;;7.91;50.17;101505.58;1765264;81;21114;-70
2020/12/06 06:50:10;;;;;;;5.28;4.05;;;;;;;7.92;50.12;101509.06;1765088;81;21161;-67
2020/12/06 06:52:40;;;;;;;6.53;5.00;;;;;;;7.93;50.13;101502.83;1761942;81;21373;-69
2020/12/06 06:55:08;;;;;;;4.65;4.12;;;;;;;7.94;50.09;101509.34;1746338;82;21179;-68
2020/12/06 06:57:41;;;;;;;5.25;4.30;;;;;;;7.96;50.07;101509.21;1746480;81;21167;-68
2020/12/06 07:00:08;;;;;;;5.30;4.03;;;;;;;7.95;50.06;101501.75;1719972;82;21136;-69
2020/12/06 07:02:40;;;;;;;6.40;4.20;;;;;;;7.98;49.99;101504.69;1746256;82;21206;-68
2020/12/06 07:05:21;;;;;;;6.33;4.35;;;;;;;7.99;49.99;101502.39;1734749;82;22390;-68
2020/12/06 07:07:50;;;;;;;6.97;4.45;;;;;;;8.02;49.95;101499.55;1746270;82;21155;-68
2020/12/06 07:10:23;;;;;;;5.53;4.22;;;;;;;8.03;49.92;101501.22;1746326;82;21172;-69
2020/12/06 07:12:52;;;;;;;;;;;;;;;8.03;49.91;101502.54;1745543;82;21148;-69
2020/12/06 07:15:21;;;;;;;5.97;4.50;;;;;;;8.05;49.85;101510.77;1745204;82;20293;-69
2020/12/06 07:17:49;;;;;;;5.53;3.85;;;;;;;8.00;49.95;101503.61;1746387;82;21363;-69
2020/12/06 07:20:18;;;;;;;5.37;4.22;;;;;;;8.01;49.95;101507.09;1746314;82;21159;-69
2020/12/06 07:22:46;;;;;;;5.60;4.22;;;;;;;8.04;49.89;101509.54;1746393;81;21200;-68
2020/12/06 07:25:15;;;;;;;5.50;4.30;;;;;;;8.07;49.86;101509.31;1746182;82;21183;-69
2020/12/06 07:27:42;;;;;;;5.10;4.22;;;;;;;8.09;49.82;101516.66;1746428;82;21135;-69
2020/12/06 07:30:12;;;;;;;4.87;4.12;;;;;;;8.11;49.78;101516.07;1746306;82;23572;-69
2020/12/06 07:32:39;;;;;;;5.12;4.03;;;;;;;8.13;49.74;101516.84;1746256;82;21160;-68
2020/12/06 07:35:10;;;;;;;5.40;4.47;;;;;;;8.16;49.69;101521.06;1746349;82;21140;-68
2020/12/06 07:37:37;;;;;;;5.58;4.55;;;;;;;8.17;49.63;101517.44;1746417;82;21195;-68
2020/12/06 07:40:09;;;;;;;5.72;4.70;;;;;;;8.18;49.58;101523.12;1746368;82;21584;-68
2020/12/06 07:42:37;;;;;;;4.70;3.95;;;;;;;8.20;49.57;101527.83;1742482;82;21210;-69
2020/12/06 07:45:07;;;;;;;6.08;4.40;;;;;;;8.21;49.53;101524.23;1746240;82;21151;-68
2020/12/06 07:47:34;;;;;;;6.28;4.95;;;;;;;8.22;49.51;101521.94;1746344;82;21667;-70
2020/12/06 07:50:03;;;;;;;4.90;4.12;;;;;;;8.25;49.47;101527.03;1746378;82;21160;-68
2020/12/06 07:52:33;;;;;;;5.87;4.35;;;;;;;8.26;49.45;101524.73;1746284;82;21574;-68
2020/12/06 07:55:09;;;;;;;5.58;4.72;;;;;;;8.27;49.44;101523.31;1734497;81;21273;-68
2020/12/06 07:57:50;;;;;;;5.67;4.00;;;;;;;8.28;49.38;101536.90;1730790;81;21586;-69
2020/12/06 08:00:20;;;;;;;5.65;4.50;;;;;;;8.30;49.34;101533.31;1722710;81;21263;-69
2020/12/06 08:02:53;;;;;;;7.03;4.42;;;;;;;8.30;49.31;101527.53;1734367;81;21206;-67
2020/12/06 08:05:24;;;;;;;6.55;4.33;;;;;;;8.32;49.31;101520.31;1734617;81;21193;-68
2020/12/06 08:07:56;;;;;;;6.40;4.35;;;;;;;8.33;49.31;101526.48;1707975;82;21208;-68
2020/12/06 08:10:27;;;;;;;5.75;4.58;;;;;;;8.34;49.27;101524.19;1734382;81;21630;-68
2020/12/06 08:12:54;;;;;;;6.03;4.60;;;;;;;8.35;49.25;101531.19;1734354;81;21615;-69
2020/12/06 08:15:26;;;;;;;6.10;4.67;;;;;;;8.36;49.25;101525.76;1725563;81;21904;-69
2020/12/06 08:17:54;;;;;;;5.95;4.58;;;;;;;8.39;49.22;101526.04;1733623;81;21186;-67
2020/12/06 08:20:24;;;;;;;4.78;4.20;;;;;;;8.41;49.18;101536.04;1734393;81;21405;-68
2020/12/06 08:22:54;;;;;;;4.67;4.10;;;;;;;8.44;49.11;101531.86;1738694;81;21129;-69
2020/12/06 08:25:30;;;;;;;4.58;3.77;;;;;;;8.48;49.08;101533.36;1737619;81;21143;-67
2020/12/06 08:28:51;;;;;;;;;;;;;;;;;;;;;
2020/12/06 08:31:45;;;;;;;5.45;4.37;;;;;;;8.60;49.01;101528.97;1582115;86;21253;-68
2020/12/06 08:34:14;;;;;;;5.67;3.92;;;;;;;8.68;48.95;101529.25;1701483;81;21725;-69
2020/12/06 08:36:41;;;;;;;5.53;4.15;;;;;;;8.77;48.91;101513.14;1734390;81;21154;-69
2020/12/06 08:39:18;;;;;;;5.08;4.03;;;;;;;8.88;48.88;101510.55;1734379;81;21171;-69
2020/12/06 08:41:46;;;;;;;5.08;3.90;;;;;;;9.02;48.76;101513.49;1734178;81;21194;-69
2020/12/06 08:44:13;;;;;;;6.03;3.95;;;;;;;9.17;48.63;101512.83;1734521;81;21591;-70
2020/12/06 08:46:52;;;;;;;5.28;4.03;;;;;;;9.25;48.57;101499.83;1734688;81;22298;-69
2020/12/06 08:49:24;;;;;;;5.35;3.95;;;;;;;9.45;48.39;101514.25;1731214;81;21226;-70
2020/12/06 08:51:52;;;;;;;4.65;3.77;;;;;;;9.58;48.28;101504.84;1734563;81;21162;-70
2020/12/06 08:58:28;;;;;;;4.83;3.75;;;;;;;9.76;47.93;101506.08;1768221;80;21174;-70
2020/12/06 09:01:02;;;;;;;6.10;4.90;;;;;;;9.83;47.85;101507.30;1775757;80;21138;-69
2020/12/06 09:03:30;;;;;;;4.95;3.62;;;;;;;9.90;47.81;101510.80;1753431;81;21698;-69
2020/12/06 09:05:57;;;;;;;4.37;3.70;;;;;;;9.97;47.66;101506.70;1783500;80;21410;-70
2020/12/06 09:08:25;;;;;;;5.28;4.17;;;;;;;10.03;47.60;101504.39;1750041;81;21225;-68
2020/12/06 09:10:52;;;;;;;4.87;4.28;;;;;;;10.10;47.59;101501.24;1742241;82;21207;-70
2020/12/06 09:13:20;;;;;;;4.92;3.72;;;;;;;10.09;47.52;101493.77;1748567;82;22153;-70
2020/12/06 09:15:47;;;;;;;4.50;3.58;;;;;;;10.23;47.38;101500.63;1739421;82;21493;-69
2020/12/06 09:18:14;;;;;;;4.35;3.65;;;;;;;10.29;47.35;101501.95;1783599;80;21103;-68
2020/12/06 09:43:28;;;;;;;5.00;3.65;;;;;;;10.59;47.30;101495.52;1757910;81;21208;-68
2020/12/06 09:45:58;;;;;;;5.37;3.60;;;;;;;10.63;47.40;101486.81;1764539;81;21195;-68
2020/12/06 09:48:25;;;;;;;5.25;3.50;;;;;;;10.70;47.48;101491.99;1760689;80;21576;-69
2020/12/06 09:50:52;;;;;;;4.05;3.02;;;;;;;10.76;47.42;101480.84;1760528;81;21165;-70
2020/12/06 09:54:46;;;;;;;4.97;3.60;;;;;;;10.94;47.45;101473.64;1791872;77;28710;-74
2020/12/06 09:58:05;;;;;;;;;;;;;;;;;;;;;
2020/12/06 10:01:20;;;;;;;;;;;;;;;11.04;47.41;101471.89;1635615;84;21228;-71
2020/12/06 10:03:47;;;;;;;5.53;3.60;;;;;;;11.14;47.49;101472.80;1685480;80;20306;-72
2020/12/06 10:06:15;;;;;;;5.30;3.58;;;;;;;11.16;47.44;101478.86;1778709;80;21132;-71
2020/12/06 10:08:43;;;;;;;5.10;3.98;;;;;;;11.26;47.38;101465.62;1758154;81;21150;-71
2020/12/06 10:11:11;;;;;;;3.75;3.22;;;;;;;11.37;47.34;101466.84;1753570;80;21134;-72
2020/12/06 10:13:39;;;;;;;3.90;3.33;;;;;;;11.47;47.24;101462.91;1772358;80;21853;-69
2020/12/06 10:16:06;;;;;;;5.72;3.77;;;;;;;11.57;47.28;101461.63;1739948;81;21622;-71
2020/12/06 10:19:50;;;;;;;;;;;;;;;;;;;;;
2020/12/06 10:23:10;;;;;;;5.42;3.50;;;;;;;11.75;47.02;101464.04;1516073;93;27934;-68
2020/12/06 10:25:44;;;;;;;5.47;4.35;;;;;;;11.90;47.03;101456.57;1773004;79;29593;-67
2020/12/06 10:28:11;;;;;;;4.42;3.33;;;;;;;11.95;47.06;101462.31;1753741;80;21128;-67
2020/12/06 10:30:38;;;;;;;5.25;3.45;;;;;;;12.04;47.01;101459.84;1776207;80;21460;-67
2020/12/06 10:33:06;;;;;;;4.95;3.58;;;;;;;12.11;46.83;101454.30;1779916;80;21219;-67
2020/12/06 10:35:33;;;;;;;4.72;3.33;;;;;;;12.19;46.74;101455.81;1780841;80;21197;-67
2020/12/06 10:38:01;;;;;;;7.75;3.83;;;;;;;12.25;46.62;101452.59;1780867;79;21126;-66
2020/12/06 10:40:28;;;;;;;4.80;3.70;;;;;;;12.32;46.47;101460.87;1773244;80;21141;-67
2020/12/06 10:42:56;;;;;;;5.33;3.75;;;;;;;12.41;46.42;101457.89;1775592;80;21196;-71
2020/12/06 10:46:14;;;;;;;5.00;3.52;;;;;;;12.50;46.36;101457.06;1768510;79;21181;-70
2020/12/06 10:49:51;;;;;;;4.22;3.30;;;;;;;12.60;46.19;101451.23;1540181;89;21274;-69
2020/12/06 10:52:25;;;;;;;4.37;3.20;;;;;;;12.79;45.81;101449.07;1758837;79;28682;-68
2020/12/06 10:54:54;;;;;;;4.08;3.20;;;;;;;12.89;45.67;101443.73;1740491;81;21600;-67
2020/12/06 10:57:22;;;;;;;6.65;3.65;;;;;;;13.02;45.42;101443.41;1765327;80;21376;-69
2020/12/06 10:59:49;;;;;;;3.50;3.12;;;;;;;13.15;45.19;101446.16;1753890;80;21653;-68
2020/12/06 11:02:17;;;;;;;4.08;3.20;;;;;;;13.29;45.12;101435.98;1749440;80;21134;-67
2020/12/06 11:08:50;;;;;;;4.47;3.17;;;;;;;13.55;44.88;101446.41;1739853;82;21184;-67
2020/12/06 11:11:19;;;;;;;4.65;3.70;;;;;;;13.67;45.08;101439.06;1748896;81;21362;-68
2020/12/06 11:13:47;;;;;;;4.78;3.60;;;;;;;13.73;45.08;101436.30;1761315;79;21131;-68
2020/12/06 11:16:58;;;;;;;4.70;2.98;;;;;;;13.80;44.92;101434.72;1756282;81;21155;-68
2020/12/06 11:20:22;;;;;;;3.65;3.00;;;;;;;13.85;44.84;101434.27;1773690;80;21157;-69
2020/12/06 11:26:43;;;;;;;3.70;2.67;;;;;;;13.85;44.57;101424.45;1678727;83;21166;-67
2020/12/06 11:29:11;;;;;;;3.75;3.22;;;;;;;13.84;44.42;101425.42;1752816;81;21249;-68
2020/12/06 11:31:38;;;;;;;4.47;3.40;;;;;;;13.84;44.30;101418.74;1740843;80;21208;-67
2020/12/06 11:34:06;;;;;;;4.10;2.98;;;;;;;13.86;44.24;101427.45;1752431;81;21177;-68
2020/12/06 11:36:33;;;;;;;4.15;2.77;;;;;;;13.86;44.21;101418.09;1752961;81;21617;-68
2020/12/06 11:39:00;;;;;;;3.72;3.20;;;;;;;13.87;44.28;101417.59;1752784;80;21185;-68
2020/12/06 11:41:27;;;;;;;4.37;2.87;;;;;;;13.86;44.38;101415.42;1765274;80;21249;-68
2020/12/06 11:43:55;;;;;;;3.22;2.87;;;;;;;13.85;44.36;101415.57;1752787;81;21603;-68
2020/12/06 11:46:22;;;;;;;3.20;2.85;;;;;;;13.84;44.43;101417.91;1752865;81;21239;-69
2020/12/06 11:48:50;;;;;;;3.30;2.60;;;;;;;13.81;44.28;101424.41;1752946;81;21692;-69
2020/12/06 11:51:20;;;;;;;3.40;2.62;;;;;;;13.80;44.15;101411.19;1751745;80;21194;-68
2020/12/06 11:53:47;;;;;;;4.33;3.00;;;;;;;13.76;44.10;101409.30;1750762;81;21419;-67
2020/12/06 11:56:15;;;;;;;2.80;2.47;;;;;;;13.72;43.99;101411.92;1749683;81;21131;-68
2020/12/06 11:58:44;;;;;;;4.95;3.30;;;;;;;13.68;44.07;101413.22;1750729;81;21143;-68
2020/12/06 12:01:11;;;;;;;4.28;2.85;;;;;;;13.64;44.06;101411.33;1726234;81;21214;-68
2020/12/06 12:03:40;;;;;;;4.35;3.12;;;;;;;13.58;44.09;101406.58;1759829;80;21384;-68
2020/12/06 12:06:08;;;;;;;6.28;3.17;;;;;;;13.53;44.12;101407.51;1776250;79;21149;-67
2020/12/06 12:08:35;;;;;;;3.77;3.05;;;;;;;13.48;44.13;101410.63;1776527;80;21127;-68
2020/12/06 12:11:09;;;;;;;4.70;3.00;;;;;;;13.44;44.13;101406.54;1776473;80;21154;-68
2020/12/06 12:13:32;;;;;;;3.90;2.95;;;;;;;13.39;44.19;101394.65;1774817;80;21189;-68
2020/12/06 12:17:03;;;;;;;3.37;2.60;;;;;;;13.33;44.23;101391.56;1781724;79;21373;-67
2020/12/06 12:20:50;;;;;;;3.70;2.67;;;;;;;13.28;44.24;101397.79;1720453;81;21634;-68
2020/12/06 12:27:19;;;;;;;3.27;2.67;;;;;;;13.03;44.32;101408.59;1679359;85;21182;-68
2020/12/06 12:29:53;;;;;;;3.87;3.08;;;;;;;12.90;44.42;101398.72;1775112;79;28521;-69
2020/12/06 12:32:58;;;;;;;3.75;3.20;;;;;;;12.79;44.46;101397.90;1767640;81;21100;-68
2020/12/06 12:36:41;;;;;;;3.27;2.70;;;;;;;12.74;44.45;101408.64;1761602;79;21004;-69